Accueil
METAR-TAF:

METAR-TAF

Aéroports :

Aéroport de Mont-Joli

Mont-Joli, Québec, Canada

latitude: 48-36N, longitude: 068-13W, altitude: 48 m

Observation

Le bulletin a été fait il y a 2 heures et 15 minutes, à 12:00 UTC
Vent 9 kt de ouest/nord-ouest avec des rafales jusqu'à 15 kt
Température 7°C
Humidité 57%
Pression 1017 hPa
Visibilité: 48.3 km
Nuages fragmentés à une hauteur de 7000 ft

METAR: CYYY 011200Z 29009G15KT 30SM BKN070 07/M01 A3002 RMK AC6 SLP171

Heure: 10:15 (14:15 UTC)

Prévision

Le bulletin a été fait il y a 6 heures et 45 minutes, à 07:30 UTC
Prévision valable du 01 à 08 UTC au 01 à 20 UTC
Vent 5 kt de ouest/sud-ouest
Visibilité: 10 km
Nuages fragmentés à une hauteur de 6000 ft
Evoluant progressivement
du 01 à 14 UTC au 01 à 16 UTC
Ciel clair

TAF: CYYY 010730Z 0108/0120 24005KT P6SM BKN060 BECMG 0114/0116 SKC RMK NXT FCST BY 011400Z

Observations et prévisions météorologiques de plus de 4000 aéroports (messages METAR et TAF).

Les stations disponibles sont représentées par des disques jaunes et rouges sur la carte.

Passer la souris dessus pour voir le nom de la station.

Cliquer dessus pour voir les observations et prévisions météorologiques.

Pour changer de carte: cliquez sur les boutons verts avec une croix noire pour zoomer, sur le bouton vert avec un tiret pour effectuer un zoom arrière, ou sur les flèches vertes pour les cartes adjacentes.


METAR-TAF: